createdAt,value
2019-05-02T00:01:57.155Z,8.87
2019-05-02T00:04:26.783Z,8.89
2019-05-02T00:07:09.719Z,8.94
2019-05-02T00:09:47.437Z,8.94
2019-05-02T00:12:16.110Z,8.88
2019-05-02T00:14:45.696Z,8.90
2019-05-02T00:17:20.353Z,8.88
2019-05-02T00:19:49.850Z,8.88
2019-05-02T00:22:20.051Z,8.89
2019-05-02T00:24:49.836Z,8.89
2019-05-02T00:27:19.326Z,8.92
2019-05-02T00:29:48.906Z,8.89
2019-05-02T00:32:22.245Z,8.82
2019-05-02T00:34:49.535Z,8.84
2019-05-02T00:37:24.384Z,8.83
2019-05-02T00:39:50.535Z,8.85
2019-05-02T00:42:22.594Z,8.90
2019-05-02T00:44:51.380Z,8.94
2019-05-02T00:47:31.009Z,8.97
2019-05-02T00:50:00.427Z,8.99
2019-05-02T00:52:32.878Z,9.01
2019-05-02T00:55:01.093Z,8.93
2019-05-02T00:57:33.537Z,8.93
2019-05-02T01:00:03.675Z,8.92
2019-05-02T01:02:35.852Z,8.92
2019-05-02T01:05:06.752Z,8.91
2019-05-02T01:07:36.192Z,8.88
2019-05-02T01:10:07.179Z,8.87
2019-05-02T01:12:40.014Z,8.79
2019-05-02T01:15:08.681Z,8.81
2019-05-02T01:17:39.243Z,8.76
2019-05-02T01:20:09.233Z,8.74
2019-05-02T01:22:38.723Z,8.72
2019-05-02T01:25:14.940Z,8.69
2019-05-02T01:27:44.692Z,8.69
2019-05-02T01:30:25.487Z,8.72
2019-05-02T01:33:06.448Z,8.71
2019-05-02T01:35:50.992Z,8.73
2019-05-02T01:38:26.561Z,8.75
2019-05-02T01:40:55.918Z,8.74
2019-05-02T01:43:27.707Z,8.74
2019-05-02T01:45:57.281Z,8.77
2019-05-02T01:48:26.858Z,8.77
2019-05-02T01:50:56.304Z,8.81
2019-05-02T01:53:29.238Z,8.82
2019-05-02T01:55:59.186Z,8.81
2019-05-02T01:58:28.218Z,8.79
2019-05-02T02:00:57.651Z,8.81
2019-05-02T02:03:27.285Z,8.73
2019-05-02T02:05:56.822Z,8.73
2019-05-02T02:08:27.224Z,8.76
2019-05-02T02:10:58.244Z,8.76
2019-05-02T02:13:31.374Z,8.81
2019-05-02T02:16:00.224Z,8.79
2019-05-02T02:18:31.995Z,8.78
2019-05-02T02:21:09.351Z,8.81
2019-05-02T02:23:49.670Z,8.84
2019-05-02T02:26:19.043Z,8.83
2019-05-02T02:28:48.554Z,8.83
2019-05-02T02:31:19.764Z,8.81
2019-05-02T02:33:51.485Z,8.83
2019-05-02T02:36:30.214Z,8.82
2019-05-02T02:38:57.585Z,8.78
2019-05-02T02:41:27.090Z,8.80
2019-05-02T02:44:02.976Z,8.81
2019-05-02T02:46:38.099Z,8.79
2019-05-02T02:49:05.477Z,8.85
2019-05-02T02:51:34.997Z,8.83
2019-05-02T02:54:05.835Z,8.78
2019-05-02T02:56:40.433Z,8.76
2019-05-02T02:59:06.837Z,8.73
2019-05-02T03:01:36.286Z,8.73
2019-05-02T03:04:09.491Z,8.77
2019-05-02T03:06:38.352Z,8.76
2019-05-02T03:09:08.689Z,8.78
2019-05-02T03:11:39.911Z,8.74
2019-05-02T03:14:11.064Z,8.75
2019-05-02T03:16:47.236Z,8.74
2019-05-02T03:19:14.774Z,8.71
2019-05-02T03:22:01.030Z,8.74
2019-05-02T03:24:27.311Z,8.75
2019-05-02T03:26:58.361Z,8.74
2019-05-02T03:29:39.706Z,8.67
2019-05-02T03:32:14.274Z,8.74
2019-05-02T03:34:45.298Z,8.70
2019-05-02T03:37:09.597Z,8.72
2019-05-02T03:39:34.768Z,8.71
2019-05-02T03:42:05.096Z,8.77
2019-05-02T03:44:35.719Z,8.76
2019-05-02T03:47:05.364Z,8.76
2019-05-02T03:49:41.045Z,8.78
2019-05-02T03:52:06.259Z,8.74
2019-05-02T03:54:49.084Z,8.72
2019-05-02T03:57:07.567Z,8.76
2019-05-02T03:59:39.722Z,8.74
2019-05-02T04:02:14.148Z,8.75
2019-05-02T04:04:40.364Z,8.73
2019-05-02T04:07:10.188Z,8.74
2019-05-02T04:09:42.353Z,8.76
2019-05-02T04:12:18.938Z,8.82
2019-05-02T04:14:43.369Z,8.81
2019-05-02T04:17:13.040Z,8.84
2019-05-02T04:19:43.612Z,8.81
2019-05-02T04:22:14.515Z,8.85
2019-05-02T04:24:47.809Z,8.87
2019-05-02T04:27:15.789Z,8.87
2019-05-02T04:29:45.207Z,8.92
2019-05-02T04:32:14.910Z,8.90
2019-05-02T04:34:48.960Z,8.87
2019-05-02T04:37:15.535Z,8.88
2019-05-02T04:39:44.981Z,8.92
2019-05-02T04:42:19.470Z,8.97
2019-05-02T04:45:08.785Z,8.97
2019-05-02T04:47:21.335Z,8.99
2019-05-02T04:49:52.071Z,8.99
2019-05-02T04:52:21.831Z,8.96
2019-05-02T04:54:51.284Z,8.97
2019-05-02T04:57:26.289Z,8.99
2019-05-02T05:00:04.982Z,9.02
2019-05-02T05:02:30.831Z,9.04
2019-05-02T05:04:54.141Z,9.08
2019-05-02T05:07:24.251Z,9.10
2019-05-02T05:10:02.660Z,9.05
2019-05-02T05:12:24.808Z,9.07
2019-05-02T05:14:54.232Z,9.03
2019-05-02T05:17:25.015Z,9.00
2019-05-02T05:19:54.790Z,9.04
2019-05-02T05:22:24.236Z,9.10
2019-05-02T05:25:12.282Z,9.13
2019-05-02T05:27:41.540Z,9.15
2019-05-02T05:30:15.425Z,9.09
2019-05-02T05:32:42.239Z,9.03
2019-05-02T05:35:14.727Z,9.08
2019-05-02T05:37:51.419Z,9.11
2019-05-02T05:40:17.661Z,9.11
2019-05-02T05:42:48.079Z,9.11
2019-05-02T05:45:17.757Z,9.09
2019-05-02T05:47:47.888Z,9.06
2019-05-02T05:50:17.774Z,9.04
2019-05-02T05:52:47.355Z,9.11
2019-05-02T05:55:20.348Z,9.12
2019-05-02T05:57:50.130Z,9.17
2019-05-02T06:00:22.985Z,9.13
2019-05-02T06:02:56.089Z,9.09
2019-05-02T06:05:21.519Z,9.17
2019-05-02T06:07:50.933Z,9.22
2019-05-02T06:10:20.389Z,9.28
2019-05-02T06:12:49.865Z,9.32
2019-05-02T06:15:19.447Z,9.31
2019-05-02T06:17:48.939Z,9.37
2019-05-02T06:20:18.521Z,9.42
2019-05-02T06:22:47.941Z,9.51
2019-05-02T06:25:17.534Z,9.49
2019-05-02T06:27:46.957Z,9.43
2019-05-02T06:30:17.484Z,9.49
2019-05-02T06:32:50.122Z,9.53
2019-05-02T06:35:21.250Z,9.48
2019-05-02T06:37:50.112Z,9.54
2019-05-02T06:40:20.442Z,9.58
2019-05-02T06:42:49.955Z,9.59
2019-05-02T06:45:19.619Z,9.60
2019-05-02T06:47:49.134Z,9.58
2019-05-02T06:50:18.687Z,9.63
2019-05-02T06:52:48.226Z,9.73
2019-05-02T06:55:17.808Z,9.70
2019-05-02T06:57:47.469Z,9.79
2019-05-02T07:00:17.526Z,9.79
2019-05-02T07:02:47.082Z,9.87
2019-05-02T07:05:16.651Z,9.87
2019-05-02T07:07:46.199Z,9.81
2019-05-02T07:10:19.970Z,9.83
2019-05-02T07:12:51.185Z,9.82
2019-05-02T07:15:25.755Z,9.92
2019-05-02T07:17:59.084Z,10.02
2019-05-02T07:20:28.527Z,10.05
2019-05-02T07:22:59.582Z,9.94
2019-05-02T07:25:29.000Z,9.85
2019-05-02T07:27:58.512Z,9.91
2019-05-02T07:30:30.116Z,9.89
2019-05-02T07:33:01.149Z,9.87
2019-05-02T07:35:30.397Z,9.89
2019-05-02T07:37:59.836Z,9.86
2019-05-02T07:40:29.349Z,9.85
2019-05-02T07:42:58.778Z,9.92
2019-05-02T07:45:28.299Z,9.96
2019-05-02T07:47:57.747Z,9.94
2019-05-02T07:50:27.260Z,10.04
2019-05-02T07:52:56.750Z,10.04
2019-05-02T07:55:30.598Z,10.07
2019-05-02T07:58:02.035Z,10.15
2019-05-02T08:00:32.079Z,10.21
2019-05-02T08:03:04.986Z,10.24
2019-05-02T08:05:33.487Z,10.17
2019-05-02T08:08:03.011Z,10.13
2019-05-02T08:10:32.506Z,10.15
2019-05-02T08:13:02.088Z,10.29
2019-05-02T08:15:31.675Z,10.32
2019-05-02T08:18:01.090Z,10.30
2019-05-02T08:20:30.623Z,10.36
2019-05-02T08:23:00.159Z,10.40
2019-05-02T08:25:29.608Z,10.41
2019-05-02T08:28:15.815Z,10.43
2019-05-02T08:30:45.365Z,10.44
2019-05-02T08:33:14.893Z,10.49
2019-05-02T08:35:44.869Z,10.51
2019-05-02T08:38:17.798Z,10.51
2019-05-02T08:40:47.866Z,10.64
2019-05-02T08:43:16.701Z,10.52
2019-05-02T08:45:46.124Z,10.68
2019-05-02T08:48:15.573Z,10.72
2019-05-02T08:50:45.120Z,10.79
2019-05-02T08:53:19.728Z,10.75
2019-05-02T08:55:46.716Z,10.81
2019-05-02T08:58:16.307Z,10.89
2019-05-02T09:00:47.388Z,10.86
2019-05-02T09:03:17.044Z,10.92
2019-05-02T09:05:47.468Z,10.99
2019-05-02T09:08:17.178Z,11.09
2019-05-02T09:10:46.767Z,11.18
2019-05-02T09:13:23.633Z,11.23
2019-05-02T09:15:51.308Z,11.13
2019-05-02T09:18:18.594Z,11.17
2019-05-02T09:20:52.639Z,11.08
2019-05-02T09:23:19.162Z,11.03
2019-05-02T09:25:48.596Z,10.94
2019-05-02T09:28:22.493Z,10.94
2019-05-02T09:31:05.085Z,11.04
2019-05-02T09:33:32.245Z,11.09
2019-05-02T09:36:02.425Z,11.13
2019-05-02T09:38:32.849Z,11.23
2019-05-02T09:41:15.345Z,11.29
2019-05-02T09:43:38.977Z,11.45
2019-05-02T09:46:07.316Z,11.45
2019-05-02T09:48:36.569Z,11.40
2019-05-02T09:51:12.523Z,11.33
2019-05-02T09:53:37.270Z,11.32
2019-05-02T09:56:06.835Z,11.38
2019-05-02T09:58:36.351Z,11.40
2019-05-02T10:01:11.859Z,11.50
2019-05-02T10:03:42.385Z,11.50
2019-05-02T10:06:13.894Z,11.65
2019-05-02T10:08:46.276Z,11.69
2019-05-02T10:11:16.854Z,11.72
2019-05-02T10:13:45.561Z,11.72
2019-05-02T10:16:18.010Z,11.77
2019-05-02T10:18:46.203Z,11.82
2019-05-02T10:21:17.170Z,11.85
2019-05-02T10:23:51.826Z,11.98
2019-05-02T10:26:20.242Z,11.99
2019-05-02T10:28:50.762Z,12.01
2019-05-02T10:31:21.854Z,11.94
2019-05-02T10:33:52.951Z,12.00
2019-05-02T10:36:23.967Z,12.11
2019-05-02T10:38:58.852Z,12.14
2019-05-02T10:41:24.780Z,12.14
2019-05-02T10:43:57.748Z,12.20
2019-05-02T10:46:27.783Z,12.16
2019-05-02T10:49:18.259Z,12.09
2019-05-02T10:51:49.608Z,12.14
2019-05-02T10:54:20.606Z,12.03
2019-05-02T10:56:51.847Z,12.14
2019-05-02T10:59:22.108Z,12.29
2019-05-02T11:02:09.968Z,12.43
2019-05-02T11:04:42.095Z,12.50
2019-05-02T11:07:12.033Z,12.67
2019-05-02T11:09:42.033Z,12.74
2019-05-02T11:12:16.459Z,12.76
2019-05-02T11:14:46.096Z,12.86
2019-05-02T11:17:20.165Z,12.98
2019-05-02T11:20:01.898Z,12.95
2019-05-02T11:22:32.688Z,13.02
2019-05-02T11:25:02.180Z,13.18
2019-05-02T11:27:32.856Z,13.38
2019-05-02T11:30:02.791Z,13.63
2019-05-02T11:32:33.026Z,13.85
2019-05-02T11:35:03.077Z,13.94
2019-05-02T11:37:32.927Z,13.89
2019-05-02T11:40:05.778Z,13.88
2019-05-02T11:42:33.878Z,13.78
2019-05-02T11:45:04.243Z,13.91
2019-05-02T11:47:33.713Z,13.92
2019-05-02T11:50:03.478Z,13.98
2019-05-02T11:52:37.318Z,14.13
2019-05-02T11:55:06.064Z,14.21
2019-05-02T11:57:35.531Z,14.32
2019-05-02T12:00:09.073Z,14.51
2019-05-02T12:02:41.768Z,14.69
2019-05-02T12:05:14.099Z,14.71
2019-05-02T12:07:43.560Z,14.95
2019-05-02T12:10:13.222Z,15.11
2019-05-02T12:12:43.757Z,15.43
2019-05-02T12:15:13.388Z,15.74
2019-05-02T12:17:43.109Z,15.73
2019-05-02T12:20:12.825Z,15.54
2019-05-02T12:22:42.423Z,15.69
2019-05-02T12:25:12.893Z,15.65
2019-05-02T12:27:43.573Z,15.64
2019-05-02T12:30:13.835Z,15.81
2019-05-02T12:32:43.370Z,15.65
2019-05-02T12:35:13.083Z,15.87
2019-05-02T12:37:42.588Z,15.92
2019-05-02T12:40:12.598Z,15.66
2019-05-02T12:42:42.099Z,15.60
2019-05-02T12:45:12.324Z,15.66
2019-05-02T12:47:42.811Z,15.66
2019-05-02T12:50:12.801Z,15.74
2019-05-02T12:52:42.882Z,15.68
2019-05-02T12:55:12.920Z,15.72
2019-05-02T12:57:42.982Z,15.64
2019-05-02T13:00:13.476Z,15.65
2019-05-02T13:02:47.391Z,15.57
2019-05-02T13:05:18.061Z,15.41
2019-05-02T13:07:50.493Z,15.18
2019-05-02T13:10:24.271Z,15.06
2019-05-02T13:12:53.843Z,14.96
2019-05-02T13:15:23.529Z,15.00
2019-05-02T13:17:53.364Z,15.06
2019-05-02T13:20:29.165Z,15.06
2019-05-02T13:23:13.825Z,15.00
2019-05-02T13:25:43.445Z,14.97
2019-05-02T13:28:17.130Z,14.98
2019-05-02T13:30:46.704Z,15.00
2019-05-02T13:33:18.184Z,14.75
2019-05-02T13:35:52.060Z,14.74
2019-05-02T13:38:22.465Z,14.75
2019-05-02T13:40:51.997Z,14.72
2019-05-02T13:43:23.087Z,14.56
2019-05-02T13:46:02.251Z,14.41
2019-05-02T13:48:32.307Z,14.34
2019-05-02T13:51:03.907Z,14.34
2019-05-02T13:53:34.371Z,14.30
2019-05-02T13:56:23.852Z,14.34
2019-05-02T13:58:53.274Z,14.28
2019-05-02T14:01:23.130Z,14.22
2019-05-02T14:03:55.473Z,14.19
2019-05-02T14:06:30.257Z,14.16
2019-05-02T14:08:59.202Z,14.07
2019-05-02T14:11:43.492Z,14.05
2019-05-02T14:14:13.180Z,14.01
2019-05-02T14:16:42.635Z,14.05
2019-05-02T14:19:12.682Z,14.09
2019-05-02T14:21:42.392Z,14.02
2019-05-02T14:24:11.962Z,13.89
2019-05-02T14:26:43.429Z,13.91
2019-05-02T14:29:16.290Z,13.79
2019-05-02T14:31:44.273Z,13.70
2019-05-02T14:34:32.715Z,13.75
2019-05-02T14:37:02.147Z,13.72
2019-05-02T14:39:32.515Z,13.71
2019-05-02T14:42:03.724Z,13.65
2019-05-02T14:45:01.518Z,13.52
2019-05-02T14:47:04.640Z,13.40
2019-05-02T14:49:34.169Z,13.39
2019-05-02T14:52:07.051Z,13.31
2019-05-02T14:54:38.052Z,13.36
2019-05-02T14:57:21.498Z,13.30
2019-05-02T14:59:50.207Z,13.31
2019-05-02T15:02:22.874Z,13.30
2019-05-02T15:04:53.294Z,13.28
2019-05-02T15:07:26.567Z,13.22
2019-05-02T15:09:57.229Z,13.20
2019-05-02T15:12:25.105Z,13.17
2019-05-02T15:14:58.646Z,13.15
2019-05-02T15:17:27.993Z,13.11
2019-05-02T15:19:57.147Z,13.15
2019-05-02T15:22:35.843Z,13.14
2019-05-02T15:25:00.050Z,13.07
2019-05-02T15:27:40.197Z,13.13
2019-05-02T15:30:06.553Z,13.08
2019-05-02T15:32:37.281Z,13.07
2019-05-02T15:35:12.916Z,13.01
2019-05-02T15:37:42.686Z,12.97
2019-05-02T15:42:52.214Z,12.99
2019-05-02T15:45:23.761Z,13.00
2019-05-02T15:47:53.064Z,12.93
2019-05-02T15:50:25.395Z,12.93
2019-05-02T15:52:57.309Z,12.90
2019-05-02T15:55:26.808Z,12.93
2019-05-02T15:57:56.331Z,12.98
2019-05-02T16:00:27.868Z,13.05
2019-05-02T16:03:02.901Z,12.99
2019-05-02T16:05:31.957Z,12.96
2019-05-02T16:08:06.310Z,12.96
2019-05-02T16:10:38.474Z,12.98
2019-05-02T16:13:08.859Z,12.95
2019-05-02T16:15:40.540Z,12.98
2019-05-02T16:18:12.623Z,12.97
2019-05-02T16:20:47.274Z,12.97
2019-05-02T16:23:19.501Z,12.98
2019-05-02T16:25:46.659Z,12.97
2019-05-02T16:28:16.381Z,12.97
2019-05-02T16:30:47.686Z,13.01
2019-05-02T16:33:20.737Z,13.02
2019-05-02T16:35:53.494Z,13.06
2019-05-02T16:38:26.735Z,13.05
2019-05-02T16:40:55.928Z,13.08
2019-05-02T16:43:27.062Z,13.09
2019-05-02T16:45:56.594Z,13.17
2019-05-02T16:48:32.358Z,13.20
2019-05-02T16:50:58.801Z,13.24
2019-05-02T16:53:30.996Z,13.29
2019-05-02T16:56:05.512Z,13.26
2019-05-02T16:58:38.103Z,13.26
2019-05-02T17:01:07.939Z,13.30
2019-05-02T17:03:42.374Z,13.33
2019-05-02T17:06:12.373Z,13.32
2019-05-02T17:09:02.849Z,13.35
2019-05-02T17:11:38.253Z,13.32
2019-05-02T17:14:12.114Z,13.42
2019-05-02T17:16:42.136Z,13.31
2019-05-02T17:19:12.738Z,13.25
2019-05-02T17:21:53.960Z,13.22
2019-05-02T17:24:22.660Z,13.13
2019-05-02T17:26:54.093Z,13.16
2019-05-02T17:29:24.135Z,13.19
2019-05-02T17:31:59.148Z,13.24
2019-05-02T17:34:30.245Z,13.25
2019-05-02T17:37:03.231Z,13.26
2019-05-02T17:39:30.586Z,13.25
2019-05-02T17:42:00.943Z,13.27
2019-05-02T17:44:31.258Z,13.24
2019-05-02T17:47:02.405Z,13.22
2019-05-02T17:49:37.185Z,13.21
2019-05-02T17:52:20.985Z,13.18
2019-05-02T17:54:48.950Z,13.11
2019-05-02T17:57:21.549Z,13.09
2019-05-02T17:59:54.518Z,13.06
2019-05-02T18:02:23.945Z,12.98
2019-05-02T18:04:55.819Z,12.97
2019-05-02T18:07:31.671Z,12.96
2019-05-02T18:09:56.201Z,12.89
2019-05-02T18:12:25.716Z,12.85
2019-05-02T18:14:59.062Z,12.81
2019-05-02T18:17:27.557Z,12.82
2019-05-02T18:20:02.293Z,12.85
2019-05-02T18:22:34.214Z,12.82
2019-05-02T18:25:02.270Z,12.77
2019-05-02T18:27:32.046Z,12.82
2019-05-02T18:30:02.227Z,12.76
2019-05-02T18:32:33.792Z,12.77
2019-05-02T18:35:06.333Z,12.61
2019-05-02T18:37:42.839Z,12.45
2019-05-02T18:40:11.940Z,12.23
2019-05-02T18:42:42.414Z,11.99
2019-05-02T18:45:18.077Z,11.81
2019-05-02T18:47:47.660Z,11.62
2019-05-02T18:50:36.971Z,11.43
2019-05-02T18:53:08.547Z,11.37
2019-05-02T18:55:42.292Z,11.29
2019-05-02T18:58:13.071Z,11.26
2019-05-02T19:00:42.694Z,11.22
2019-05-02T19:03:16.974Z,11.23
2019-05-02T19:05:46.417Z,11.21
2019-05-02T19:08:15.145Z,11.27
2019-05-02T19:11:04.087Z,11.21
2019-05-02T19:13:19.442Z,11.23
2019-05-02T19:15:49.121Z,11.21
2019-05-02T19:18:20.250Z,11.21
2019-05-02T19:20:57.430Z,11.17
2019-05-02T19:23:24.491Z,11.17
2019-05-02T19:25:54.214Z,11.20
2019-05-02T19:28:34.692Z,11.17
2019-05-02T19:31:06.738Z,11.16
2019-05-02T19:33:37.310Z,11.14
2019-05-02T19:36:05.286Z,11.14
2019-05-02T19:38:34.971Z,11.10
2019-05-02T19:41:08.868Z,11.07
2019-05-02T19:43:40.310Z,11.10
2019-05-02T19:46:07.034Z,11.11
2019-05-02T19:48:37.410Z,11.10
2019-05-02T19:51:10.569Z,11.10
2019-05-02T19:53:39.116Z,11.08
2019-05-02T19:56:08.912Z,10.99
2019-05-02T19:58:42.794Z,10.99
2019-05-02T20:01:09.788Z,11.00
2019-05-02T20:03:39.327Z,10.95
2019-05-02T20:06:08.832Z,10.95
2019-05-02T20:08:38.358Z,11.00
2019-05-02T20:11:07.854Z,10.90
2019-05-02T20:13:37.445Z,10.81
2019-05-02T20:16:19.953Z,10.81
2019-05-02T20:18:49.758Z,10.63
2019-05-02T20:21:27.219Z,10.63
2019-05-02T20:23:52.107Z,10.58
2019-05-02T20:26:22.254Z,10.39
2019-05-02T20:28:52.786Z,10.39
2019-05-02T20:31:22.590Z,10.38
2019-05-02T20:33:53.104Z,10.42
2019-05-02T20:36:25.578Z,10.33
2019-05-02T20:38:53.837Z,10.32
2019-05-02T20:41:23.837Z,10.32
2019-05-02T20:43:53.307Z,10.33
2019-05-02T20:46:24.799Z,10.27
2019-05-02T20:48:54.250Z,10.26
2019-05-02T20:51:24.195Z,10.15
2019-05-02T20:53:53.650Z,10.09
2019-05-02T20:56:23.679Z,10.00
2019-05-02T20:58:54.769Z,9.84
2019-05-02T21:01:24.289Z,9.75
2019-05-02T21:03:53.822Z,9.65
2019-05-02T21:09:22.544Z,9.57
2019-05-02T21:11:53.699Z,9.53
2019-05-02T21:14:26.275Z,9.52
2019-05-02T21:16:55.788Z,9.46
2019-05-02T21:19:25.354Z,9.43
2019-05-02T21:21:56.558Z,9.40
2019-05-02T21:24:26.088Z,9.40
2019-05-02T21:26:57.142Z,9.40
2019-05-02T21:29:26.596Z,9.33
2019-05-02T21:31:56.104Z,9.35
2019-05-02T21:34:25.732Z,9.31
2019-05-02T21:36:55.269Z,9.33
2019-05-02T21:39:24.732Z,9.34
2019-05-02T21:41:54.252Z,9.28
2019-05-02T21:44:23.778Z,9.18
2019-05-02T21:46:53.286Z,9.13
2019-05-02T21:49:42.961Z,9.10
2019-05-02T21:52:25.348Z,9.13
2019-05-02T21:54:56.442Z,9.05
2019-05-02T21:57:27.422Z,9.11
2019-05-02T21:59:56.879Z,9.14
2019-05-02T22:02:26.550Z,9.18
2019-05-02T22:04:56.128Z,9.21
2019-05-02T22:07:25.658Z,9.16
2019-05-02T22:09:55.156Z,9.18
2019-05-02T22:12:25.052Z,9.19
2019-05-02T22:14:54.558Z,9.21
2019-05-02T22:17:24.134Z,9.20
2019-05-02T22:19:53.638Z,9.16
2019-05-02T22:22:23.098Z,9.16
2019-05-02T22:24:52.916Z,9.18
2019-05-02T22:27:22.661Z,9.13
2019-05-02T22:29:54.630Z,9.13
2019-05-02T22:32:23.416Z,9.11
2019-05-02T22:34:55.841Z,9.12
2019-05-02T22:37:25.319Z,9.17
2019-05-02T22:39:56.388Z,9.14
2019-05-02T22:42:25.916Z,9.13
2019-05-02T22:44:55.443Z,9.16
2019-05-02T22:47:25.213Z,9.16
2019-05-02T22:49:54.675Z,9.20
2019-05-02T22:52:24.116Z,9.18
2019-05-02T22:54:53.548Z,9.14
2019-05-02T22:57:23.007Z,9.13
2019-05-02T22:59:52.519Z,9.18
2019-05-02T23:02:22.142Z,9.09
2019-05-02T23:04:52.664Z,9.05
2019-05-02T23:07:22.594Z,9.10
2019-05-02T23:09:52.794Z,9.05
2019-05-02T23:12:24.899Z,9.00
2019-05-02T23:14:53.579Z,8.99
2019-05-02T23:17:23.303Z,8.99
2019-05-02T23:19:52.941Z,8.99
2019-05-02T23:22:24.834Z,8.99
2019-05-02T23:24:55.943Z,9.04
2019-05-02T23:27:31.442Z,9.00
2019-05-02T23:30:02.940Z,8.98
2019-05-02T23:32:34.092Z,8.94
2019-05-02T23:35:07.594Z,8.96
2019-05-02T23:37:37.198Z,8.95
2019-05-02T23:40:06.862Z,8.94
2019-05-02T23:42:36.808Z,9.00
2019-05-02T23:45:09.345Z,8.95
2019-05-02T23:47:38.842Z,8.96
2019-05-02T23:50:08.434Z,8.99
2019-05-02T23:52:38.651Z,8.98
2019-05-02T23:55:08.752Z,8.98
2019-05-02T23:57:38.252Z,8.97
